Terminal Aerodrome Forecast
Issued by NWS

Home | Current Version | Previous Version | Text Only | Print | Product List | Glossary On
Versions: 1 2 3 4 5 6 7 8 9 10 11 12 13 14 15 16 17 18 19 20 21 22 23
000
FTUS43 KIND 021700
TAFBMG
TAF
KBMG 021722Z 0218/0318 23006KT 6SM BR VCSH BKN025
      TEMPO 0218/0219 2SM -RA BR
     FM022100 26007KT P6SM SCT035 BKN150
     FM030100 VRB02KT P6SM SCT250
     FM030500 00000KT 2SM BR SCT006
     FM030700 00000KT 1/2SM FG VV002
     FM031400 19003KT P6SM FEW030=

USA.gov is the U.S. government's official web portal to all federal, state and local government web resources and services.